sensor_id;sensor_type;location;lat;lon;timestamp;P1;durP1;ratioP1;P2;durP2;ratioP2
30307;SDS011;17114;52.314;8.910;2023-07-13T00:00:42;6.68;;;3.72;;
30307;SDS011;17114;52.314;8.910;2023-07-13T00:03:09;7.30;;;3.78;;
30307;SDS011;17114;52.314;8.910;2023-07-13T00:05:40;11.35;;;3.88;;
30307;SDS011;17114;52.314;8.910;2023-07-13T00:08:07;12.98;;;4.22;;
30307;SDS011;17114;52.314;8.910;2023-07-13T00:10:38;7.53;;;3.45;;
30307;SDS011;17114;52.314;8.910;2023-07-13T00:13:06;7.55;;;3.20;;
30307;SDS011;17114;52.314;8.910;2023-07-13T00:15:33;7.57;;;3.80;;
30307;SDS011;17114;52.314;8.910;2023-07-13T00:18:02;7.97;;;4.00;;
30307;SDS011;17114;52.314;8.910;2023-07-13T00:20:29;7.22;;;3.90;;
30307;SDS011;17114;52.314;8.910;2023-07-13T00:22:59;7.88;;;3.67;;
30307;SDS011;17114;52.314;8.910;2023-07-13T00:25:26;5.28;;;3.60;;
30307;SDS011;17114;52.314;8.910;2023-07-13T00:27:56;7.88;;;4.07;;
30307;SDS011;17114;52.314;8.910;2023-07-13T00:30:22;6.93;;;3.90;;
30307;SDS011;17114;52.314;8.910;2023-07-13T00:32:50;7.43;;;3.80;;
30307;SDS011;17114;52.314;8.910;2023-07-13T00:35:30;7.90;;;3.85;;
30307;SDS011;17114;52.314;8.910;2023-07-13T00:37:57;9.27;;;3.97;;
30307;SDS011;17114;52.314;8.910;2023-07-13T00:40:24;6.90;;;3.90;;
30307;SDS011;17114;52.314;8.910;2023-07-13T00:42:52;5.80;;;3.88;;
30307;SDS011;17114;52.314;8.910;2023-07-13T00:47:46;8.05;;;4.03;;
30307;SDS011;17114;52.314;8.910;2023-07-13T00:50:13;12.43;;;4.90;;
30307;SDS011;17114;52.314;8.910;2023-07-13T00:52:44;8.90;;;4.18;;
30307;SDS011;17114;52.314;8.910;2023-07-13T00:55:13;8.23;;;4.10;;
30307;SDS011;17114;52.314;8.910;2023-07-13T00:57:41;6.85;;;3.92;;
30307;SDS011;17114;52.314;8.910;2023-07-13T01:00:09;8.38;;;3.80;;
30307;SDS011;17114;52.314;8.910;2023-07-13T01:02:39;8.45;;;4.03;;
30307;SDS011;17114;52.314;8.910;2023-07-13T01:05:09;6.20;;;3.80;;
30307;SDS011;17114;52.314;8.910;2023-07-13T01:07:41;8.52;;;3.83;;
30307;SDS011;17114;52.314;8.910;2023-07-13T01:10:11;6.72;;;3.63;;
30307;SDS011;17114;52.314;8.910;2023-07-13T01:12:39;9.27;;;4.20;;
30307;SDS011;17114;52.314;8.910;2023-07-13T01:15:32;10.27;;;4.30;;
30307;SDS011;17114;52.314;8.910;2023-07-13T01:17:59;12.70;;;4.13;;
30307;SDS011;17114;52.314;8.910;2023-07-13T01:20:27;10.40;;;4.05;;
30307;SDS011;17114;52.314;8.910;2023-07-13T01:22:54;9.10;;;3.90;;
30307;SDS011;17114;52.314;8.910;2023-07-13T01:25:21;8.73;;;3.85;;
30307;SDS011;17114;52.314;8.910;2023-07-13T01:27:48;8.93;;;4.03;;
30307;SDS011;17114;52.314;8.910;2023-07-13T01:30:15;10.48;;;4.07;;
30307;SDS011;17114;52.314;8.910;2023-07-13T01:32:42;9.80;;;4.03;;
30307;SDS011;17114;52.314;8.910;2023-07-13T01:35:08;7.00;;;3.55;;
30307;SDS011;17114;52.314;8.910;2023-07-13T01:37:35;7.30;;;3.33;;
30307;SDS011;17114;52.314;8.910;2023-07-13T01:40:03;8.32;;;3.50;;
30307;SDS011;17114;52.314;8.910;2023-07-13T01:42:30;11.48;;;3.38;;
30307;SDS011;17114;52.314;8.910;2023-07-13T01:44:57;8.23;;;3.20;;
30307;SDS011;17114;52.314;8.910;2023-07-13T01:47:24;6.47;;;3.47;;
30307;SDS011;17114;52.314;8.910;2023-07-13T01:49:52;10.75;;;3.38;;
30307;SDS011;17114;52.314;8.910;2023-07-13T01:52:19;7.53;;;3.33;;
30307;SDS011;17114;52.314;8.910;2023-07-13T01:54:46;13.45;;;3.70;;
30307;SDS011;17114;52.314;8.910;2023-07-13T01:57:13;9.05;;;3.25;;
30307;SDS011;17114;52.314;8.910;2023-07-13T01:59:39;10.88;;;3.20;;
30307;SDS011;17114;52.314;8.910;2023-07-13T02:02:06;8.82;;;3.38;;
30307;SDS011;17114;52.314;8.910;2023-07-13T02:04:34;7.47;;;3.50;;
30307;SDS011;17114;52.314;8.910;2023-07-13T02:07:01;9.73;;;3.45;;
30307;SDS011;17114;52.314;8.910;2023-07-13T02:09:28;7.25;;;3.22;;
30307;SDS011;17114;52.314;8.910;2023-07-13T02:11:55;9.68;;;3.25;;
30307;SDS011;17114;52.314;8.910;2023-07-13T02:14:21;11.45;;;3.78;;
30307;SDS011;17114;52.314;8.910;2023-07-13T02:16:48;11.18;;;3.53;;
30307;SDS011;17114;52.314;8.910;2023-07-13T02:19:15;11.30;;;3.20;;
30307;SDS011;17114;52.314;8.910;2023-07-13T02:21:42;9.10;;;3.03;;
30307;SDS011;17114;52.314;8.910;2023-07-13T02:24:09;9.95;;;2.67;;
30307;SDS011;17114;52.314;8.910;2023-07-13T02:26:36;10.77;;;3.05;;
30307;SDS011;17114;52.314;8.910;2023-07-13T02:29:03;8.27;;;3.20;;
30307;SDS011;17114;52.314;8.910;2023-07-13T02:31:29;7.13;;;3.00;;
30307;SDS011;17114;52.314;8.910;2023-07-13T02:33:56;7.80;;;2.80;;
30307;SDS011;17114;52.314;8.910;2023-07-13T02:36:23;9.65;;;3.20;;
30307;SDS011;17114;52.314;8.910;2023-07-13T02:38:50;9.70;;;2.90;;
30307;SDS011;17114;52.314;8.910;2023-07-13T02:41:17;7.63;;;3.42;;
30307;SDS011;17114;52.314;8.910;2023-07-13T02:43:44;6.90;;;3.45;;
30307;SDS011;17114;52.314;8.910;2023-07-13T02:46:10;6.75;;;3.20;;
30307;SDS011;17114;52.314;8.910;2023-07-13T02:48:38;6.80;;;3.22;;
30307;SDS011;17114;52.314;8.910;2023-07-13T02:51:05;7.10;;;3.15;;
30307;SDS011;17114;52.314;8.910;2023-07-13T02:53:33;11.75;;;3.90;;
30307;SDS011;17114;52.314;8.910;2023-07-13T02:56:02;9.77;;;3.05;;
30307;SDS011;17114;52.314;8.910;2023-07-13T02:58:30;5.85;;;3.10;;
30307;SDS011;17114;52.314;8.910;2023-07-13T03:00:57;10.13;;;3.58;;
30307;SDS011;17114;52.314;8.910;2023-07-13T03:03:27;9.38;;;2.88;;
30307;SDS011;17114;52.314;8.910;2023-07-13T03:05:58;8.45;;;3.47;;
30307;SDS011;17114;52.314;8.910;2023-07-13T03:08:26;9.98;;;3.65;;
30307;SDS011;17114;52.314;8.910;2023-07-13T03:11:03;7.15;;;3.10;;
30307;SDS011;17114;52.314;8.910;2023-07-13T03:13:37;7.68;;;3.20;;
30307;SDS011;17114;52.314;8.910;2023-07-13T03:16:08;8.20;;;3.00;;
30307;SDS011;17114;52.314;8.910;2023-07-13T03:18:37;6.90;;;3.20;;
30307;SDS011;17114;52.314;8.910;2023-07-13T03:21:04;12.25;;;3.83;;
30307;SDS011;17114;52.314;8.910;2023-07-13T03:23:32;11.27;;;3.80;;
30307;SDS011;17114;52.314;8.910;2023-07-13T03:26:03;11.80;;;3.45;;
30307;SDS011;17114;52.314;8.910;2023-07-13T03:28:35;7.03;;;3.05;;
30307;SDS011;17114;52.314;8.910;2023-07-13T03:31:10;7.72;;;3.35;;
30307;SDS011;17114;52.314;8.910;2023-07-13T03:33:40;9.10;;;3.45;;
30307;SDS011;17114;52.314;8.910;2023-07-13T03:36:07;8.50;;;3.38;;
30307;SDS011;17114;52.314;8.910;2023-07-13T03:38:42;8.80;;;3.17;;
30307;SDS011;17114;52.314;8.910;2023-07-13T03:41:09;10.55;;;3.00;;
30307;SDS011;17114;52.314;8.910;2023-07-13T03:43:36;11.80;;;3.35;;
30307;SDS011;17114;52.314;8.910;2023-07-13T03:46:02;9.07;;;3.08;;
30307;SDS011;17114;52.314;8.910;2023-07-13T03:48:29;7.63;;;3.38;;
30307;SDS011;17114;52.314;8.910;2023-07-13T03:50:56;14.15;;;3.55;;
30307;SDS011;17114;52.314;8.910;2023-07-13T03:53:23;6.22;;;2.88;;
30307;SDS011;17114;52.314;8.910;2023-07-13T03:55:50;9.55;;;3.17;;
30307;SDS011;17114;52.314;8.910;2023-07-13T03:58:25;9.20;;;3.20;;
30307;SDS011;17114;52.314;8.910;2023-07-13T04:00:54;10.85;;;3.22;;
30307;SDS011;17114;52.314;8.910;2023-07-13T04:03:21;10.15;;;3.65;;
30307;SDS011;17114;52.314;8.910;2023-07-13T04:05:49;10.85;;;3.28;;
30307;SDS011;17114;52.314;8.910;2023-07-13T04:08:16;12.45;;;3.88;;
30307;SDS011;17114;52.314;8.910;2023-07-13T04:10:43;9.95;;;3.25;;
30307;SDS011;17114;52.314;8.910;2023-07-13T04:13:10;12.00;;;3.40;;
30307;SDS011;17114;52.314;8.910;2023-07-13T04:15:38;11.00;;;3.67;;
30307;SDS011;17114;52.314;8.910;2023-07-13T04:18:05;10.48;;;3.13;;
30307;SDS011;17114;52.314;8.910;2023-07-13T04:20:32;15.15;;;3.42;;
30307;SDS011;17114;52.314;8.910;2023-07-13T04:22:59;11.38;;;3.22;;
30307;SDS011;17114;52.314;8.910;2023-07-13T04:25:26;12.43;;;3.53;;
30307;SDS011;17114;52.314;8.910;2023-07-13T04:27:53;11.05;;;3.28;;
30307;SDS011;17114;52.314;8.910;2023-07-13T04:30:20;9.35;;;3.78;;
30307;SDS011;17114;52.314;8.910;2023-07-13T04:32:49;7.10;;;3.05;;
30307;SDS011;17114;52.314;8.910;2023-07-13T04:35:21;9.18;;;3.20;;
30307;SDS011;17114;52.314;8.910;2023-07-13T04:37:49;12.40;;;3.40;;
30307;SDS011;17114;52.314;8.910;2023-07-13T04:40:17;10.45;;;3.45;;
30307;SDS011;17114;52.314;8.910;2023-07-13T04:42:44;12.65;;;3.45;;
30307;SDS011;17114;52.314;8.910;2023-07-13T04:45:12;12.18;;;3.45;;
30307;SDS011;17114;52.314;8.910;2023-07-13T04:47:40;8.95;;;2.75;;
30307;SDS011;17114;52.314;8.910;2023-07-13T04:50:08;13.77;;;3.72;;
30307;SDS011;17114;52.314;8.910;2023-07-13T04:52:37;9.02;;;3.10;;
30307;SDS011;17114;52.314;8.910;2023-07-13T04:55:04;10.75;;;3.25;;
30307;SDS011;17114;52.314;8.910;2023-07-13T04:57:31;11.32;;;3.53;;
30307;SDS011;17114;52.314;8.910;2023-07-13T04:59:59;9.93;;;3.00;;
30307;SDS011;17114;52.314;8.910;2023-07-13T05:02:31;14.52;;;3.17;;
30307;SDS011;17114;52.314;8.910;2023-07-13T05:04:59;9.45;;;3.08;;
30307;SDS011;17114;52.314;8.910;2023-07-13T05:07:26;8.02;;;2.70;;
30307;SDS011;17114;52.314;8.910;2023-07-13T05:09:53;11.00;;;3.30;;
30307;SDS011;17114;52.314;8.910;2023-07-13T05:12:20;15.68;;;3.70;;
30307;SDS011;17114;52.314;8.910;2023-07-13T05:14:46;10.88;;;2.92;;
30307;SDS011;17114;52.314;8.910;2023-07-13T05:17:15;8.93;;;2.90;;
30307;SDS011;17114;52.314;8.910;2023-07-13T05:19:42;10.82;;;2.83;;
30307;SDS011;17114;52.314;8.910;2023-07-13T05:22:09;11.80;;;2.97;;
30307;SDS011;17114;52.314;8.910;2023-07-13T05:24:36;8.25;;;2.88;;
30307;SDS011;17114;52.314;8.910;2023-07-13T05:27:03;12.13;;;3.53;;
30307;SDS011;17114;52.314;8.910;2023-07-13T05:29:30;11.77;;;2.85;;
30307;SDS011;17114;52.314;8.910;2023-07-13T05:31:57;10.75;;;3.30;;
30307;SDS011;17114;52.314;8.910;2023-07-13T05:34:24;9.88;;;3.22;;
30307;SDS011;17114;52.314;8.910;2023-07-13T05:36:51;14.07;;;2.80;;
30307;SDS011;17114;52.314;8.910;2023-07-13T05:39:18;7.72;;;2.78;;
30307;SDS011;17114;52.314;8.910;2023-07-13T05:41:45;16.30;;;3.05;;
30307;SDS011;17114;52.314;8.910;2023-07-13T05:44:12;11.10;;;2.80;;
30307;SDS011;17114;52.314;8.910;2023-07-13T05:46:39;8.93;;;2.53;;
30307;SDS011;17114;52.314;8.910;2023-07-13T05:49:05;12.48;;;3.05;;
30307;SDS011;17114;52.314;8.910;2023-07-13T05:51:32;10.10;;;3.05;;
30307;SDS011;17114;52.314;8.910;2023-07-13T05:53:59;10.88;;;3.15;;
30307;SDS011;17114;52.314;8.910;2023-07-13T05:56:26;7.55;;;2.35;;
30307;SDS011;17114;52.314;8.910;2023-07-13T05:58:53;6.90;;;2.70;;
30307;SDS011;17114;52.314;8.910;2023-07-13T06:01:19;12.18;;;2.65;;
30307;SDS011;17114;52.314;8.910;2023-07-13T06:03:47;8.57;;;2.60;;
30307;SDS011;17114;52.314;8.910;2023-07-13T06:06:14;9.27;;;2.60;;
30307;SDS011;17114;52.314;8.910;2023-07-13T06:08:42;5.40;;;2.40;;
30307;SDS011;17114;52.314;8.910;2023-07-13T06:11:19;9.85;;;2.67;;
30307;SDS011;17114;52.314;8.910;2023-07-13T06:13:50;7.03;;;2.47;;
30307;SDS011;17114;52.314;8.910;2023-07-13T06:16:17;9.63;;;2.58;;
30307;SDS011;17114;52.314;8.910;2023-07-13T06:18:44;6.78;;;2.15;;
30307;SDS011;17114;52.314;8.910;2023-07-13T06:21:14;6.20;;;2.20;;
30307;SDS011;17114;52.314;8.910;2023-07-13T06:23:44;8.00;;;2.97;;
30307;SDS011;17114;52.314;8.910;2023-07-13T06:26:14;10.00;;;2.42;;
30307;SDS011;17114;52.314;8.910;2023-07-13T06:28:41;12.10;;;2.78;;
30307;SDS011;17114;52.314;8.910;2023-07-13T06:31:08;8.85;;;2.83;;
30307;SDS011;17114;52.314;8.910;2023-07-13T06:33:37;9.70;;;2.55;;
30307;SDS011;17114;52.314;8.910;2023-07-13T06:36:04;13.73;;;2.53;;
30307;SDS011;17114;52.314;8.910;2023-07-13T06:38:32;9.13;;;2.65;;
30307;SDS011;17114;52.314;8.910;2023-07-13T06:40:59;9.00;;;2.47;;
30307;SDS011;17114;52.314;8.910;2023-07-13T06:43:26;11.20;;;2.72;;
30307;SDS011;17114;52.314;8.910;2023-07-13T06:45:54;12.02;;;2.97;;
30307;SDS011;17114;52.314;8.910;2023-07-13T06:48:21;10.57;;;3.08;;
30307;SDS011;17114;52.314;8.910;2023-07-13T06:50:49;12.50;;;2.90;;
30307;SDS011;17114;52.314;8.910;2023-07-13T06:53:17;9.02;;;2.67;;
30307;SDS011;17114;52.314;8.910;2023-07-13T06:55:45;11.05;;;3.00;;
30307;SDS011;17114;52.314;8.910;2023-07-13T06:58:12;14.98;;;3.15;;
30307;SDS011;17114;52.314;8.910;2023-07-13T07:00:41;17.38;;;3.15;;
30307;SDS011;17114;52.314;8.910;2023-07-13T07:03:08;11.25;;;2.40;;
30307;SDS011;17114;52.314;8.910;2023-07-13T07:05:35;12.07;;;2.55;;
30307;SDS011;17114;52.314;8.910;2023-07-13T07:08:02;11.60;;;2.70;;
30307;SDS011;17114;52.314;8.910;2023-07-13T07:10:29;10.05;;;2.60;;
30307;SDS011;17114;52.314;8.910;2023-07-13T07:12:57;14.07;;;3.20;;
30307;SDS011;17114;52.314;8.910;2023-07-13T07:15:25;8.68;;;2.45;;
30307;SDS011;17114;52.314;8.910;2023-07-13T07:17:52;7.18;;;2.47;;
30307;SDS011;17114;52.314;8.910;2023-07-13T07:20:20;8.90;;;2.63;;
30307;SDS011;17114;52.314;8.910;2023-07-13T07:22:48;10.90;;;2.65;;
30307;SDS011;17114;52.314;8.910;2023-07-13T07:25:15;9.82;;;2.72;;
30307;SDS011;17114;52.314;8.910;2023-07-13T07:27:42;10.00;;;2.88;;
30307;SDS011;17114;52.314;8.910;2023-07-13T07:30:12;12.93;;;3.08;;
30307;SDS011;17114;52.314;8.910;2023-07-13T07:32:42;9.27;;;2.65;;
30307;SDS011;17114;52.314;8.910;2023-07-13T07:35:12;11.13;;;3.20;;
30307;SDS011;17114;52.314;8.910;2023-07-13T07:37:39;9.73;;;2.90;;
30307;SDS011;17114;52.314;8.910;2023-07-13T07:40:08;8.68;;;2.58;;
30307;SDS011;17114;52.314;8.910;2023-07-13T07:42:38;9.60;;;3.20;;
30307;SDS011;17114;52.314;8.910;2023-07-13T07:45:05;13.27;;;4.13;;
30307;SDS011;17114;52.314;8.910;2023-07-13T07:47:32;9.05;;;2.95;;
30307;SDS011;17114;52.314;8.910;2023-07-13T07:49:59;10.52;;;3.20;;
30307;SDS011;17114;52.314;8.910;2023-07-13T07:52:26;9.43;;;3.08;;
30307;SDS011;17114;52.314;8.910;2023-07-13T07:54:53;13.40;;;3.00;;
30307;SDS011;17114;52.314;8.910;2023-07-13T07:57:23;8.25;;;2.40;;
30307;SDS011;17114;52.314;8.910;2023-07-13T07:59:52;11.27;;;2.80;;
30307;SDS011;17114;52.314;8.910;2023-07-13T08:02:22;11.45;;;3.17;;
30307;SDS011;17114;52.314;8.910;2023-07-13T08:04:55;10.48;;;2.85;;
30307;SDS011;17114;52.314;8.910;2023-07-13T08:07:24;8.10;;;2.45;;
30307;SDS011;17114;52.314;8.910;2023-07-13T08:09:52;8.57;;;3.03;;
30307;SDS011;17114;52.314;8.910;2023-07-13T08:12:19;14.52;;;3.92;;
30307;SDS011;17114;52.314;8.910;2023-07-13T08:15:07;8.38;;;2.78;;
30307;SDS011;17114;52.314;8.910;2023-07-13T08:17:37;7.22;;;2.67;;
30307;SDS011;17114;52.314;8.910;2023-07-13T08:20:04;10.43;;;2.97;;
30307;SDS011;17114;52.314;8.910;2023-07-13T08:22:32;12.15;;;2.88;;
30307;SDS011;17114;52.314;8.910;2023-07-13T08:24:59;10.77;;;3.13;;
30307;SDS011;17114;52.314;8.910;2023-07-13T08:27:26;8.98;;;2.60;;
30307;SDS011;17114;52.314;8.910;2023-07-13T08:29:54;11.25;;;3.00;;
30307;SDS011;17114;52.314;8.910;2023-07-13T08:32:21;9.48;;;2.58;;
30307;SDS011;17114;52.314;8.910;2023-07-13T08:34:49;11.60;;;3.08;;
30307;SDS011;17114;52.314;8.910;2023-07-13T08:37:16;7.20;;;2.50;;
30307;SDS011;17114;52.314;8.910;2023-07-13T08:39:44;10.10;;;2.90;;
30307;SDS011;17114;52.314;8.910;2023-07-13T08:44:57;10.13;;;2.75;;
30307;SDS011;17114;52.314;8.910;2023-07-13T08:47:32;6.97;;;2.88;;
30307;SDS011;17114;52.314;8.910;2023-07-13T08:50:02;7.88;;;2.70;;
30307;SDS011;17114;52.314;8.910;2023-07-13T08:55:12;8.02;;;2.13;;
30307;SDS011;17114;52.314;8.910;2023-07-13T08:57:45;6.68;;;2.30;;
30307;SDS011;17114;52.314;8.910;2023-07-13T09:00:17;9.50;;;2.95;;
30307;SDS011;17114;52.314;8.910;2023-07-13T09:02:45;6.40;;;2.65;;
30307;SDS011;17114;52.314;8.910;2023-07-13T09:05:33;7.53;;;2.35;;
30307;SDS011;17114;52.314;8.910;2023-07-13T09:08:18;7.85;;;2.88;;
30307;SDS011;17114;52.314;8.910;2023-07-13T09:10:59;6.05;;;2.30;;
30307;SDS011;17114;52.314;8.910;2023-07-13T09:13:46;8.85;;;2.60;;
30307;SDS011;17114;52.314;8.910;2023-07-13T09:16:25;6.18;;;2.10;;
30307;SDS011;17114;52.314;8.910;2023-07-13T09:18:53;9.60;;;2.63;;
30307;SDS011;17114;52.314;8.910;2023-07-13T09:21:33;6.22;;;2.30;;
30307;SDS011;17114;52.314;8.910;2023-07-13T09:27:12;8.38;;;2.35;;
30307;SDS011;17114;52.314;8.910;2023-07-13T09:29:48;4.60;;;1.75;;
30307;SDS011;17114;52.314;8.910;2023-07-13T09:32:18;7.35;;;2.03;;
30307;SDS011;17114;52.314;8.910;2023-07-13T09:34:53;5.80;;;1.90;;
30307;SDS011;17114;52.314;8.910;2023-07-13T09:37:22;9.00;;;3.33;;
30307;SDS011;17114;52.314;8.910;2023-07-13T09:39:54;4.72;;;1.95;;
30307;SDS011;17114;52.314;8.910;2023-07-13T09:42:24;5.78;;;1.67;;
30307;SDS011;17114;52.314;8.910;2023-07-13T09:44:56;4.03;;;1.65;;
30307;SDS011;17114;52.314;8.910;2023-07-13T09:47:26;6.20;;;1.85;;
30307;SDS011;17114;52.314;8.910;2023-07-13T09:50:03;5.28;;;1.90;;
30307;SDS011;17114;52.314;8.910;2023-07-13T09:52:46;6.53;;;1.85;;
30307;SDS011;17114;52.314;8.910;2023-07-13T09:57:51;4.72;;;1.60;;
30307;SDS011;17114;52.314;8.910;2023-07-13T10:00:23;6.15;;;1.90;;
30307;SDS011;17114;52.314;8.910;2023-07-13T10:02:58;10.65;;;2.00;;
30307;SDS011;17114;52.314;8.910;2023-07-13T10:05:52;4.45;;;1.48;;
30307;SDS011;17114;52.314;8.910;2023-07-13T10:08:24;6.85;;;2.03;;
30307;SDS011;17114;52.314;8.910;2023-07-13T10:10:57;4.53;;;1.70;;
30307;SDS011;17114;52.314;8.910;2023-07-13T10:13:35;5.57;;;1.85;;
30307;SDS011;17114;52.314;8.910;2023-07-13T10:16:06;3.85;;;1.50;;
30307;SDS011;17114;52.314;8.910;2023-07-13T10:18:42;5.03;;;1.95;;
30307;SDS011;17114;52.314;8.910;2023-07-13T10:21:17;6.90;;;1.98;;
30307;SDS011;17114;52.314;8.910;2023-07-13T10:24:21;6.50;;;1.98;;
30307;SDS011;17114;52.314;8.910;2023-07-13T10:26:55;4.10;;;1.70;;
30307;SDS011;17114;52.314;8.910;2023-07-13T10:30:06;6.95;;;1.58;;
30307;SDS011;17114;52.314;8.910;2023-07-13T10:32:46;6.60;;;1.60;;
30307;SDS011;17114;52.314;8.910;2023-07-13T10:35:15;4.88;;;1.98;;
30307;SDS011;17114;52.314;8.910;2023-07-13T10:38:06;6.50;;;1.90;;
30307;SDS011;17114;52.314;8.910;2023-07-13T10:40:37;5.78;;;1.90;;
30307;SDS011;17114;52.314;8.910;2023-07-13T10:43:20;4.15;;;1.65;;
30307;SDS011;17114;52.314;8.910;2023-07-13T10:45:51;5.22;;;1.85;;
30307;SDS011;17114;52.314;8.910;2023-07-13T10:48:20;7.35;;;2.08;;
30307;SDS011;17114;52.314;8.910;2023-07-13T10:50:50;4.93;;;2.08;;
30307;SDS011;17114;52.314;8.910;2023-07-13T10:53:20;4.78;;;2.13;;
30307;SDS011;17114;52.314;8.910;2023-07-13T10:56:03;6.88;;;1.80;;
30307;SDS011;17114;52.314;8.910;2023-07-13T10:58:50;4.32;;;1.98;;
30307;SDS011;17114;52.314;8.910;2023-07-13T11:01:39;4.38;;;1.70;;
30307;SDS011;17114;52.314;8.910;2023-07-13T11:04:14;5.32;;;1.83;;
30307;SDS011;17114;52.314;8.910;2023-07-13T11:06:42;5.43;;;1.92;;
30307;SDS011;17114;52.314;8.910;2023-07-13T11:12:00;6.90;;;2.00;;
30307;SDS011;17114;52.314;8.910;2023-07-13T11:14:30;5.45;;;1.88;;
30307;SDS011;17114;52.314;8.910;2023-07-13T11:17:23;8.43;;;2.28;;
30307;SDS011;17114;52.314;8.910;2023-07-13T11:28:03;7.20;;;2.20;;
30307;SDS011;17114;52.314;8.910;2023-07-13T11:33:19;6.75;;;2.17;;
30307;SDS011;17114;52.314;8.910;2023-07-13T11:36:06;6.40;;;1.85;;
30307;SDS011;17114;52.314;8.910;2023-07-13T11:38:41;5.60;;;2.17;;
30307;SDS011;17114;52.314;8.910;2023-07-13T11:41:20;6.43;;;2.40;;
30307;SDS011;17114;52.314;8.910;2023-07-13T11:43:53;3.97;;;2.05;;
30307;SDS011;17114;52.314;8.910;2023-07-13T11:46:23;7.97;;;2.40;;
30307;SDS011;17114;52.314;8.910;2023-07-13T11:48:51;5.40;;;2.17;;
30307;SDS011;17114;52.314;8.910;2023-07-13T11:51:26;3.80;;;1.88;;
30307;SDS011;17114;52.314;8.910;2023-07-13T11:53:58;8.00;;;3.65;;
30307;SDS011;17114;52.314;8.910;2023-07-13T11:56:29;8.13;;;2.40;;
30307;SDS011;17114;52.314;8.910;2023-07-13T11:58:59;5.55;;;2.17;;
30307;SDS011;17114;52.314;8.910;2023-07-13T12:01:32;6.63;;;2.13;;
30307;SDS011;17114;52.314;8.910;2023-07-13T12:04:01;12.10;;;2.58;;
30307;SDS011;17114;52.314;8.910;2023-07-13T12:06:33;4.55;;;1.95;;
30307;SDS011;17114;52.314;8.910;2023-07-13T12:09:13;7.10;;;2.00;;
30307;SDS011;17114;52.314;8.910;2023-07-13T12:11:44;4.68;;;2.00;;
30307;SDS011;17114;52.314;8.910;2023-07-13T12:14:15;6.22;;;2.15;;
30307;SDS011;17114;52.314;8.910;2023-07-13T12:16:43;8.35;;;2.40;;
30307;SDS011;17114;52.314;8.910;2023-07-13T12:19:29;6.30;;;2.60;;
30307;SDS011;17114;52.314;8.910;2023-07-13T12:21:56;7.97;;;2.10;;
30307;SDS011;17114;52.314;8.910;2023-07-13T12:24:25;7.40;;;2.20;;
30307;SDS011;17114;52.314;8.910;2023-07-13T12:29:21;4.85;;;1.80;;
30307;SDS011;17114;52.314;8.910;2023-07-13T12:31:49;6.13;;;2.30;;
30307;SDS011;17114;52.314;8.910;2023-07-13T12:34:18;7.82;;;2.83;;
30307;SDS011;17114;52.314;8.910;2023-07-13T12:39:33;5.70;;;2.08;;
30307;SDS011;17114;52.314;8.910;2023-07-13T12:44:53;6.20;;;2.10;;
30307;SDS011;17114;52.314;8.910;2023-07-13T12:47:42;6.05;;;2.30;;
30307;SDS011;17114;52.314;8.910;2023-07-13T12:50:14;7.28;;;2.22;;
30307;SDS011;17114;52.314;8.910;2023-07-13T12:52:53;5.18;;;2.15;;
30307;SDS011;17114;52.314;8.910;2023-07-13T12:55:23;7.13;;;1.70;;
30307;SDS011;17114;52.314;8.910;2023-07-13T12:57:51;3.03;;;1.60;;
30307;SDS011;17114;52.314;8.910;2023-07-13T13:02:52;7.75;;;1.55;;
30307;SDS011;17114;52.314;8.910;2023-07-13T13:05:41;4.57;;;1.77;;
30307;SDS011;17114;52.314;8.910;2023-07-13T13:08:10;3.90;;;1.70;;
30307;SDS011;17114;52.314;8.910;2023-07-13T13:10:38;6.47;;;1.90;;
30307;SDS011;17114;52.314;8.910;2023-07-13T13:13:06;2.35;;;1.67;;
30307;SDS011;17114;52.314;8.910;2023-07-13T13:15:32;5.10;;;1.88;;
30307;SDS011;17114;52.314;8.910;2023-07-13T13:17:59;8.15;;;1.60;;
30307;SDS011;17114;52.314;8.910;2023-07-13T13:20:26;5.30;;;1.58;;
30307;SDS011;17114;52.314;8.910;2023-07-13T13:22:53;5.03;;;1.35;;
30307;SDS011;17114;52.314;8.910;2023-07-13T13:25:21;3.10;;;1.50;;
30307;SDS011;17114;52.314;8.910;2023-07-13T13:27:49;4.13;;;2.03;;
30307;SDS011;17114;52.314;8.910;2023-07-13T13:30:16;4.95;;;2.20;;
30307;SDS011;17114;52.314;8.910;2023-07-13T13:32:44;5.47;;;2.22;;
30307;SDS011;17114;52.314;8.910;2023-07-13T13:35:16;8.15;;;2.70;;
30307;SDS011;17114;52.314;8.910;2023-07-13T13:37:45;5.15;;;2.53;;
30307;SDS011;17114;52.314;8.910;2023-07-13T13:40:17;4.05;;;2.10;;
30307;SDS011;17114;52.314;8.910;2023-07-13T13:42:46;6.00;;;2.42;;
30307;SDS011;17114;52.314;8.910;2023-07-13T13:45:13;4.30;;;2.15;;
30307;SDS011;17114;52.314;8.910;2023-07-13T13:47:40;3.88;;;1.80;;
30307;SDS011;17114;52.314;8.910;2023-07-13T13:50:15;3.65;;;1.85;;
30307;SDS011;17114;52.314;8.910;2023-07-13T13:52:43;5.13;;;1.65;;
30307;SDS011;17114;52.314;8.910;2023-07-13T13:55:14;3.72;;;2.42;;
30307;SDS011;17114;52.314;8.910;2023-07-13T13:57:42;3.47;;;1.98;;
30307;SDS011;17114;52.314;8.910;2023-07-13T14:00:09;4.40;;;1.60;;
30307;SDS011;17114;52.314;8.910;2023-07-13T14:02:47;3.30;;;1.67;;
30307;SDS011;17114;52.314;8.910;2023-07-13T14:05:18;3.08;;;2.00;;
30307;SDS011;17114;52.314;8.910;2023-07-13T14:07:49;6.13;;;2.45;;
30307;SDS011;17114;52.314;8.910;2023-07-13T14:10:17;2.97;;;2.00;;
30307;SDS011;17114;52.314;8.910;2023-07-13T14:12:46;6.78;;;2.45;;
30307;SDS011;17114;52.314;8.910;2023-07-13T14:15:24;6.53;;;2.85;;
30307;SDS011;17114;52.314;8.910;2023-07-13T14:17:57;3.88;;;2.60;;
30307;SDS011;17114;52.314;8.910;2023-07-13T14:20:24;3.30;;;2.67;;
30307;SDS011;17114;52.314;8.910;2023-07-13T14:22:52;5.53;;;3.20;;
30307;SDS011;17114;52.314;8.910;2023-07-13T14:25:20;6.60;;;2.92;;
30307;SDS011;17114;52.314;8.910;2023-07-13T14:27:53;5.45;;;3.10;;
30307;SDS011;17114;52.314;8.910;2023-07-13T14:30:25;7.53;;;3.25;;
30307;SDS011;17114;52.314;8.910;2023-07-13T14:32:52;6.45;;;3.20;;
30307;SDS011;17114;52.314;8.910;2023-07-13T14:35:21;6.32;;;3.10;;
30307;SDS011;17114;52.314;8.910;2023-07-13T14:37:49;6.80;;;3.65;;
30307;SDS011;17114;52.314;8.910;2023-07-13T14:40:18;4.78;;;2.92;;
30307;SDS011;17114;52.314;8.910;2023-07-13T14:42:54;4.10;;;3.17;;
30307;SDS011;17114;52.314;8.910;2023-07-13T14:45:21;6.95;;;3.08;;
30307;SDS011;17114;52.314;8.910;2023-07-13T14:47:48;4.72;;;3.13;;
30307;SDS011;17114;52.314;8.910;2023-07-13T14:50:33;5.05;;;2.42;;
30307;SDS011;17114;52.314;8.910;2023-07-13T14:53:01;4.15;;;2.83;;
30307;SDS011;17114;52.314;8.910;2023-07-13T14:55:28;5.10;;;2.60;;
30307;SDS011;17114;52.314;8.910;2023-07-13T14:57:55;5.25;;;2.80;;
30307;SDS011;17114;52.314;8.910;2023-07-13T15:00:23;6.28;;;2.85;;
30307;SDS011;17114;52.314;8.910;2023-07-13T15:02:52;3.92;;;2.63;;
30307;SDS011;17114;52.314;8.910;2023-07-13T15:05:22;4.93;;;2.85;;
30307;SDS011;17114;52.314;8.910;2023-07-13T15:07:51;4.57;;;3.25;;
30307;SDS011;17114;52.314;8.910;2023-07-13T15:10:20;4.72;;;3.08;;
30307;SDS011;17114;52.314;8.910;2023-07-13T15:13:00;5.15;;;3.80;;
30307;SDS011;17114;52.314;8.910;2023-07-13T15:15:40;6.28;;;4.28;;
30307;SDS011;17114;52.314;8.910;2023-07-13T15:18:15;8.25;;;3.97;;
30307;SDS011;17114;52.314;8.910;2023-07-13T15:20:44;7.30;;;4.22;;
30307;SDS011;17114;52.314;8.910;2023-07-13T15:23:15;7.25;;;5.18;;
30307;SDS011;17114;52.314;8.910;2023-07-13T15:25:44;7.35;;;4.35;;
30307;SDS011;17114;52.314;8.910;2023-07-13T15:28:12;7.47;;;4.20;;
30307;SDS011;17114;52.314;8.910;2023-07-13T15:30:50;5.75;;;4.20;;
30307;SDS011;17114;52.314;8.910;2023-07-13T15:33:24;4.80;;;3.50;;
30307;SDS011;17114;52.314;8.910;2023-07-13T15:35:55;9.65;;;3.65;;
30307;SDS011;17114;52.314;8.910;2023-07-13T15:38:25;9.95;;;4.15;;